Date,TemperatureHighF,TemperatureAvgF,TemperatureLowF,DewpointHighF,DewpointAvgF,DewpointLowF,HumidityHigh,HumidityAvg,HumidityLow,PressureMaxIn,PressureMinIn,WindSpeedMaxMPH,WindSpeedAvgMPH,GustSpeedMaxMPH,PrecipitationSumIn
2013-2-1,46,31,18,21,10,-1,70,42,29,29.71,29.42,10,2,13,0.00
2013-2-2,63,41,24,30,25,20,89,58,28,29.53,29.42,7,1,10,0.00
2013-2-3,60,47,32,29,24,20,76,44,25,29.56,29.18,8,2,12,0.00
2013-2-4,70,57,41,36,29,25,63,36,23,29.24,29.09,8,2,14,0.00
2013-2-5,72,49,31,38,30,24,96,55,23,29.33,29.18,5,0,7,0.00
2013-2-6,67,52,33,47,37,29,91,61,37,29.33,29.15,13,4,20,0.00
2013-2-7,63,53,43,56,47,33,98,79,62,29.42,29.09,10,2,15,0.00
2013-2-8,53,41,34,33,30,26,88,66,38,29.59,29.42,8,2,12,0.00
2013-2-9,50,42,34,49,37,30,98,83,60,29.42,29.00,12,4,16,0.09
2013-2-10,64,54,36,57,33,20,98,53,25,29.33,28.91,10,4,17,0.22
2013-2-11,57,42,29,26,22,19,77,49,26,29.50,29.33,7,1,10,0.00
2013-2-12,43,39,31,39,31,23,98,76,48,29.39,29.24,7,1,11,0.28
2013-2-13,58,44,34,41,33,25,98,71,32,29.33,29.21,6,2,9,0.00
2013-2-14,62,47,29,32,27,24,88,50,30,29.47,29.24,9,2,14,0.00
2013-2-15,47,38,29,28,16,8,63,42,27,29.68,29.47,9,3,15,0.00
2013-2-16,48,37,23,24,15,10,67,41,28,29.65,29.33,8,2,11,0.00
2013-2-17,71,54,32,32,26,17,72,38,23,29.33,29.03,11,4,16,0.00
2013-2-18,63,55,37,47,33,18,64,45,32,29.42,28.91,14,6,23,0.00
2013-2-19,56,41,26,25,20,16,81,44,27,29.59,29.42,7,1,10,0.00
2013-2-20,40,37,33,37,30,16,98,80,39,29.53,29.24,7,1,12,0.37
2013-2-21,40,36,26,40,34,15,98,93,61,29.27,28.97,9,2,12,1.09
2013-2-22,42,30,21,18,15,13,80,55,37,29.42,29.24,8,2,10,0.00
2013-2-23,51,34,20,24,18,13,85,57,31,29.39,29.21,5,0,8,0.00
2013-2-24,63,45,26,34,29,21,92,57,34,29.24,29.03,11,2,17,0.00
2013-2-25,47,42,38,44,37,28,98,83,51,29.09,28.77,13,4,19,1.31
2013-2-26,44,39,30,39,30,25,98,74,52,29.18,28.80,10,4,16,0.21
2013-2-27,51,39,30,30,25,20,92,60,36,29.42,29.18,10,3,17,0.00
2013-2-28,50,39,29,30,24,20,92,58,38,29.47,29.42,10,3,13,0.00